createdAt,value
2019-02-19T00:07:28.921Z,89.50
2019-02-19T00:17:30.413Z,89.40
2019-02-19T00:27:32.838Z,89.40
2019-02-19T00:37:34.253Z,89.50
2019-02-19T00:47:35.689Z,90.20
2019-02-19T00:57:37.150Z,90.60
2019-02-19T01:07:38.653Z,91.20
2019-02-19T01:17:40.114Z,90.90
2019-02-19T01:27:42.404Z,91.50
2019-02-19T01:37:43.700Z,91.90
2019-02-19T01:47:45.139Z,92.10
2019-02-19T01:57:46.596Z,92.00
2019-02-19T02:07:48.050Z,92.70
2019-02-19T02:17:49.576Z,92.20
2019-02-19T02:27:52.969Z,92.60
2019-02-19T02:37:54.386Z,92.10
2019-02-19T02:47:55.805Z,92.30
2019-02-19T02:57:57.252Z,92.30
2019-02-19T03:08:00.500Z,92.20
2019-02-19T03:18:02.097Z,90.00
2019-02-19T03:28:04.526Z,86.80
2019-02-19T03:38:06.045Z,85.20
2019-02-19T03:48:07.592Z,89.20
2019-02-19T03:58:09.046Z,87.60
2019-02-19T04:08:10.484Z,90.40
2019-02-19T04:18:12.066Z,91.10
2019-02-19T04:28:15.361Z,92.40
2019-02-19T04:38:16.812Z,93.20
2019-02-19T04:48:18.256Z,92.80
2019-02-19T04:58:20.057Z,93.80
2019-02-19T05:08:21.502Z,93.80
2019-02-19T05:18:23.085Z,94.10
2019-02-19T05:28:25.665Z,94.30
2019-02-19T05:38:27.037Z,93.90
2019-02-19T05:48:28.468Z,94.20
2019-02-19T05:58:29.824Z,94.20
2019-02-19T06:08:31.166Z,94.50
2019-02-19T06:18:32.544Z,93.90
2019-02-19T06:28:35.064Z,92.80
2019-02-19T06:38:36.469Z,91.60
2019-02-19T06:48:37.789Z,82.90
2019-02-19T06:58:39.436Z,62.90
2019-02-19T07:08:40.872Z,56.10
2019-02-19T07:18:42.348Z,55.50
2019-02-19T07:28:45.604Z,53.40
2019-02-19T07:38:46.972Z,54.90
2019-02-19T07:48:48.293Z,47.70
2019-02-19T07:58:49.781Z,40.70
2019-02-19T08:08:52.827Z,37.60
2019-02-19T08:18:54.262Z,35.10
2019-02-19T08:39:44.061Z,32.00
2019-02-19T08:49:45.360Z,29.00
2019-02-19T08:59:46.797Z,27.10
2019-02-19T09:09:49.015Z,27.00
2019-02-19T09:19:50.595Z,24.70
2019-02-19T09:29:52.120Z,25.00
2019-02-19T09:50:41.680Z,26.00
2019-02-19T10:00:43.012Z,26.50
2019-02-19T10:10:44.357Z,28.90
2019-02-19T10:20:45.750Z,31.90
2019-02-19T10:30:47.280Z,32.10
2019-02-19T10:40:48.638Z,32.20
2019-02-19T10:50:51.829Z,31.10
2019-02-19T11:00:53.333Z,37.50
2019-02-19T11:10:54.768Z,46.60
2019-02-19T11:20:56.250Z,49.50
2019-02-19T11:30:57.822Z,50.90
2019-02-19T11:40:59.232Z,51.00
2019-02-19T11:51:01.741Z,53.50
2019-02-19T12:01:04.261Z,52.80
2019-02-19T12:11:05.698Z,54.30
2019-02-19T12:21:07.260Z,55.40
2019-02-19T12:31:08.696Z,55.90
2019-02-19T12:41:10.174Z,55.40
2019-02-19T12:51:12.529Z,54.70
2019-02-19T13:01:13.952Z,54.70
2019-02-19T13:11:15.396Z,55.30
2019-02-19T13:21:16.881Z,53.30
2019-02-19T13:31:18.426Z,53.10
2019-02-19T13:41:19.848Z,50.20
2019-02-19T13:51:23.169Z,50.90
2019-02-19T14:01:24.664Z,52.80
2019-02-19T14:11:26.213Z,53.20
2019-02-19T14:21:46.273Z,48.60
2019-02-19T14:32:06.353Z,50.20
2019-02-19T14:42:09.717Z,54.20
2019-02-19T14:52:30.821Z,53.30
2019-02-19T15:02:39.866Z,53.80
2019-02-19T15:12:52.297Z,54.60
2019-02-19T15:23:01.930Z,57.30
2019-02-19T15:33:06.846Z,57.50
2019-02-19T15:43:27.132Z,58.50
2019-02-19T15:53:31.917Z,59.60
2019-02-19T16:03:35.333Z,60.60
2019-02-19T16:13:46.279Z,61.60
2019-02-19T16:23:55.833Z,62.00
2019-02-19T16:34:02.969Z,62.50
2019-02-19T16:44:24.733Z,63.10
2019-02-19T16:54:44.529Z,63.50
2019-02-19T17:05:04.853Z,63.90
2019-02-19T17:15:26.760Z,64.70
2019-02-19T17:25:30.065Z,65.10
2019-02-19T17:35:48.558Z,65.70
2019-02-19T17:46:07.276Z,66.80
2019-02-19T17:56:17.741Z,67.40
2019-02-19T18:06:33.418Z,67.70
2019-02-19T18:16:36.764Z,68.30
2019-02-19T18:26:38.069Z,69.00
2019-02-19T18:36:39.557Z,69.70
2019-02-19T18:46:41.129Z,70.30
2019-02-19T18:56:43.617Z,70.90
2019-02-19T19:06:45.128Z,71.30
2019-02-19T19:16:46.689Z,71.70
2019-02-19T19:26:48.174Z,70.40
2019-02-19T19:36:50.162Z,69.00
2019-02-19T19:46:51.662Z,68.70
2019-02-19T19:56:54.650Z,68.70
2019-02-19T20:06:56.089Z,67.70
2019-02-19T20:16:57.536Z,68.50
2019-02-19T20:26:59.356Z,67.80
2019-02-19T20:37:01.205Z,68.20
2019-02-19T20:47:02.891Z,71.50
2019-02-19T20:57:06.932Z,73.70
2019-02-19T21:07:08.437Z,74.10
2019-02-19T21:17:10.052Z,77.20
2019-02-19T21:27:11.568Z,81.10
2019-02-19T21:37:13.137Z,84.20
2019-02-19T21:47:14.620Z,83.60
2019-02-19T21:57:17.504Z,85.30
2019-02-19T22:07:19.081Z,88.90
2019-02-19T22:17:20.585Z,90.80
2019-02-19T22:27:21.985Z,91.50
2019-02-19T22:37:23.524Z,91.70
2019-02-19T22:47:24.961Z,91.90
2019-02-19T22:57:27.385Z,92.30
2019-02-19T23:07:28.849Z,92.30
2019-02-19T23:17:31.153Z,92.70
2019-02-19T23:27:32.543Z,93.10
2019-02-19T23:37:34.102Z,93.40
2019-02-19T23:47:35.520Z,93.60
2019-02-19T23:57:37.937Z,93.70
